createdAt,value
2017-09-14T00:00:17.680Z,19.47
2017-09-14T00:01:17.751Z,19.49
2017-09-14T00:02:17.729Z,19.37
2017-09-14T00:03:17.751Z,19.4
2017-09-14T00:04:17.783Z,19.37
2017-09-14T00:05:17.795Z,19.33
2017-09-14T00:06:17.822Z,19.51
2017-09-14T00:07:17.849Z,19.41
2017-09-14T00:08:17.868Z,19.34
2017-09-14T00:09:17.895Z,19.39
2017-09-14T00:10:17.914Z,19.34
2017-09-14T00:11:18.254Z,19.36
2017-09-14T00:12:18.269Z,19.44
2017-09-14T00:13:17.990Z,19.33
2017-09-14T00:14:18.008Z,19.29
2017-09-14T00:15:18.032Z,19.3
2017-09-14T00:16:18.056Z,19.24
2017-09-14T00:17:18.136Z,19.19
2017-09-14T00:18:18.108Z,19.22
2017-09-14T00:19:18.132Z,19.21
2017-09-14T00:20:18.147Z,19.22
2017-09-14T00:21:18.176Z,19.19
2017-09-14T00:22:18.516Z,19.19
2017-09-14T00:23:18.231Z,19.26
2017-09-14T00:24:18.246Z,19.24
2017-09-14T00:25:18.268Z,19.19
2017-09-14T00:26:18.292Z,19.14
2017-09-14T00:27:18.311Z,19.19
2017-09-14T00:28:18.338Z,19.19
2017-09-14T00:29:23.021Z,19.11
2017-09-14T00:30:18.410Z,19.12
2017-09-14T00:31:18.413Z,19.15
2017-09-14T00:32:18.750Z,19.09
2017-09-14T00:33:18.458Z,19.04
2017-09-14T00:34:18.482Z,19.18
2017-09-14T00:35:18.555Z,19.02
2017-09-14T00:36:18.525Z,19.12
2017-09-14T00:37:18.864Z,19.12
2017-09-14T00:38:18.577Z,19.14
2017-09-14T00:39:18.603Z,19.09
2017-09-14T00:40:18.936Z,19.15
2017-09-14T00:41:18.974Z,19.08
2017-09-14T00:42:18.682Z,19.07
2017-09-14T00:43:19.002Z,19.09
2017-09-14T00:44:18.714Z,19.07
2017-09-14T00:45:18.731Z,19.09
2017-09-14T00:46:18.762Z,19.07
2017-09-14T00:47:18.781Z,19.12
2017-09-14T00:48:18.808Z,19.07
2017-09-14T00:49:18.837Z,19.07
2017-09-14T00:50:18.903Z,19.11
2017-09-14T00:51:18.875Z,19.15
2017-09-14T00:52:18.908Z,18.93
2017-09-14T00:53:18.926Z,18.92
2017-09-14T00:54:19.259Z,18.92
2017-09-14T00:55:18.986Z,18.92
2017-09-14T00:56:18.991Z,18.89
2017-09-14T00:57:19.020Z,18.81
2017-09-14T00:58:19.040Z,18.81
2017-09-14T00:59:19.064Z,18.9
2017-09-14T01:00:19.099Z,18.92
2017-09-14T01:01:19.112Z,18.92
2017-09-14T01:02:19.129Z,18.96
2017-09-14T01:03:19.466Z,18.93
2017-09-14T01:04:19.186Z,18.98
2017-09-14T01:05:19.201Z,18.95
2017-09-14T01:06:19.225Z,18.86
2017-09-14T01:07:19.247Z,18.8
2017-09-14T01:08:19.276Z,18.86
2017-09-14T01:09:19.349Z,18.86
2017-09-14T01:10:19.322Z,18.86
2017-09-14T01:11:19.665Z,18.78
2017-09-14T01:12:19.373Z,18.89
2017-09-14T01:13:19.406Z,18.86
2017-09-14T01:14:19.424Z,18.96
2017-09-14T01:15:19.439Z,18.78
2017-09-14T01:16:19.802Z,18.83
2017-09-14T01:17:19.476Z,18.86
2017-09-14T01:18:19.505Z,18.75
2017-09-14T01:19:19.539Z,18.86
2017-09-14T01:20:19.563Z,18.77
2017-09-14T01:21:19.575Z,18.75
2017-09-14T01:22:19.907Z,18.75
2017-09-14T01:23:19.618Z,18.78
2017-09-14T01:24:19.650Z,18.7
2017-09-14T01:25:19.678Z,18.73
2017-09-14T01:26:19.744Z,18.66
2017-09-14T01:27:19.726Z,18.78
2017-09-14T01:28:19.744Z,18.68
2017-09-14T01:29:19.770Z,18.68
2017-09-14T01:30:19.839Z,18.65
2017-09-14T01:31:19.819Z,18.68
2017-09-14T01:32:19.852Z,18.68
2017-09-14T01:33:19.854Z,18.58
2017-09-14T01:34:19.885Z,18.6
2017-09-14T01:35:19.910Z,18.52
2017-09-14T01:36:19.930Z,18.47
2017-09-14T01:37:19.954Z,18.47
2017-09-14T01:38:20.098Z,18.29
2017-09-14T01:39:19.997Z,18.26
2017-09-14T01:40:20.335Z,18.25
2017-09-14T01:41:20.046Z,18.28
2017-09-14T01:42:20.373Z,18.28
2017-09-14T01:43:20.092Z,18.29
2017-09-14T01:44:20.109Z,18.34
2017-09-14T01:45:20.143Z,18.33
2017-09-14T01:46:20.160Z,18.26
2017-09-14T01:47:20.183Z,18.34
2017-09-14T01:48:20.204Z,18.23
2017-09-14T01:49:20.227Z,18.18
2017-09-14T01:50:20.252Z,18.18
2017-09-14T01:51:20.584Z,18.22
2017-09-14T01:52:20.611Z,18.31
2017-09-14T01:53:20.317Z,18.26
2017-09-14T01:54:20.339Z,18.28
2017-09-14T01:55:20.382Z,18.22
2017-09-14T01:56:20.402Z,18.19
2017-09-14T01:57:20.728Z,18.2
2017-09-14T01:58:20.432Z,18.16
2017-09-14T01:59:20.456Z,18.15
2017-09-14T02:00:20.483Z,18
2017-09-14T02:01:20.559Z,18.05
2017-09-14T02:02:20.539Z,18
2017-09-14T02:03:20.558Z,17.97
2017-09-14T02:04:20.578Z,17.97
2017-09-14T02:05:20.607Z,18
2017-09-14T02:06:20.619Z,17.97
2017-09-14T02:07:20.651Z,18.01
2017-09-14T02:08:20.667Z,18.01
2017-09-14T02:09:20.688Z,18.05
2017-09-14T02:10:21.022Z,17.98
2017-09-14T02:11:20.732Z,18
2017-09-14T02:12:21.072Z,18.04
2017-09-14T02:13:20.789Z,17.94
2017-09-14T02:14:20.807Z,17.86
2017-09-14T02:15:20.829Z,17.82
2017-09-14T02:16:20.904Z,17.82
2017-09-14T02:17:20.875Z,17.87
2017-09-14T02:18:20.898Z,17.85
2017-09-14T02:19:20.913Z,17.74
2017-09-14T02:20:20.945Z,17.74
2017-09-14T02:21:20.960Z,17.78
2017-09-14T02:22:20.985Z,17.72
2017-09-14T02:23:21.316Z,17.71
2017-09-14T02:24:21.342Z,17.72
2017-09-14T02:25:21.056Z,17.7
2017-09-14T02:26:21.397Z,17.64
2017-09-14T02:27:21.118Z,17.68
2017-09-14T02:28:21.121Z,17.64
2017-09-14T02:29:21.145Z,17.71
2017-09-14T02:30:21.172Z,17.72
2017-09-14T02:31:21.197Z,17.76
2017-09-14T02:32:21.208Z,17.74
2017-09-14T02:33:21.245Z,17.71
2017-09-14T02:34:21.257Z,17.74
2017-09-14T02:35:21.595Z,17.65
2017-09-14T02:36:21.300Z,17.64
2017-09-14T02:37:21.325Z,17.57
2017-09-14T02:38:21.348Z,17.56
2017-09-14T02:39:21.372Z,17.56
2017-09-14T02:40:21.391Z,17.71
2017-09-14T02:41:21.734Z,17.7
2017-09-14T02:42:21.440Z,17.67
2017-09-14T02:43:21.456Z,17.65
2017-09-14T02:44:21.482Z,17.71
2017-09-14T02:45:21.501Z,17.68
2017-09-14T02:46:21.523Z,17.72
2017-09-14T02:47:21.556Z,17.76
2017-09-14T02:48:21.583Z,17.85
2017-09-14T02:49:21.909Z,17.85
2017-09-14T02:50:21.623Z,17.95
2017-09-14T02:51:21.687Z,17.89
2017-09-14T02:52:21.664Z,17.92
2017-09-14T02:53:21.682Z,17.86
2017-09-14T02:54:21.705Z,17.87
2017-09-14T02:55:21.731Z,17.86
2017-09-14T02:56:21.765Z,17.8
2017-09-14T02:57:21.772Z,17.92
2017-09-14T02:58:21.810Z,17.92
2017-09-14T02:59:21.825Z,17.9
2017-09-14T03:00:21.844Z,17.83
2017-09-14T03:01:21.867Z,17.87
2017-09-14T03:02:21.892Z,17.83
2017-09-14T03:03:21.910Z,17.8
2017-09-14T03:04:21.931Z,17.72
2017-09-14T03:05:21.954Z,17.79
2017-09-14T03:06:22.022Z,17.8
2017-09-14T03:07:22.319Z,17.71
2017-09-14T03:08:22.026Z,17.71
2017-09-14T03:09:22.045Z,17.78
2017-09-14T03:10:22.068Z,17.7
2017-09-14T03:11:22.103Z,17.78
2017-09-14T03:12:22.118Z,17.74
2017-09-14T03:13:22.141Z,17.71
2017-09-14T03:14:22.160Z,17.74
2017-09-14T03:15:22.176Z,17.74
2017-09-14T03:16:22.207Z,17.78
2017-09-14T03:17:22.228Z,17.72
2017-09-14T03:18:22.247Z,17.65
2017-09-14T03:19:22.279Z,17.72
2017-09-14T03:20:22.309Z,17.76
2017-09-14T03:21:22.320Z,17.72
2017-09-14T03:22:22.344Z,17.72
2017-09-14T03:23:22.367Z,17.79
2017-09-14T03:24:22.387Z,17.79
2017-09-14T03:25:22.407Z,17.71
2017-09-14T03:26:22.427Z,17.74
2017-09-14T03:27:22.468Z,17.7
2017-09-14T03:28:22.784Z,17.71
2017-09-14T03:29:22.509Z,17.63
2017-09-14T03:30:22.526Z,17.68
2017-09-14T03:31:22.544Z,17.67
2017-09-14T03:32:22.562Z,17.78
2017-09-14T03:33:22.589Z,17.7
2017-09-14T03:34:22.614Z,17.7
2017-09-14T03:35:22.631Z,17.52
2017-09-14T03:36:22.651Z,17.56
2017-09-14T03:37:22.677Z,17.67
2017-09-14T03:38:22.699Z,17.59
2017-09-14T03:39:22.777Z,17.56
2017-09-14T03:40:22.745Z,17.7
2017-09-14T03:41:22.775Z,17.56
2017-09-14T03:42:22.789Z,17.54
2017-09-14T03:43:22.816Z,17.59
2017-09-14T03:44:22.850Z,17.48
2017-09-14T03:45:22.860Z,17.56
2017-09-14T03:46:22.878Z,17.45
2017-09-14T03:47:22.900Z,17.48
2017-09-14T03:48:22.928Z,17.46
2017-09-14T03:49:22.949Z,17.45
2017-09-14T03:50:22.990Z,17.44
2017-09-14T03:51:22.992Z,17.36
2017-09-14T03:52:23.016Z,17.39
2017-09-14T03:53:23.042Z,17.39
2017-09-14T03:54:23.113Z,17.36
2017-09-14T03:55:23.077Z,17.39
2017-09-14T03:56:23.101Z,17.34
2017-09-14T03:57:23.133Z,17.27
2017-09-14T03:58:23.149Z,17.23
2017-09-14T03:59:23.174Z,17.27
2017-09-14T04:00:23.190Z,17.26
2017-09-14T04:01:23.214Z,17.27
2017-09-14T04:02:23.239Z,17.23
2017-09-14T04:03:23.261Z,17.24
2017-09-14T04:04:23.287Z,17.26
2017-09-14T04:05:23.625Z,17.3
2017-09-14T04:06:23.387Z,17.34
2017-09-14T04:07:23.357Z,17.31
2017-09-14T04:08:23.371Z,17.31
2017-09-14T04:09:23.392Z,17.41
2017-09-14T04:10:23.419Z,17.3
2017-09-14T04:11:23.490Z,17.24
2017-09-14T04:12:23.775Z,17.31
2017-09-14T04:13:23.523Z,17.27
2017-09-14T04:14:23.532Z,17.33
2017-09-14T04:15:23.537Z,17.36
2017-09-14T04:16:23.602Z,17.23
2017-09-14T04:17:23.574Z,17.33
2017-09-14T04:18:23.592Z,17.22
2017-09-14T04:19:23.621Z,17.3
2017-09-14T04:20:23.649Z,17.27
2017-09-14T04:21:23.760Z,17.27
2017-09-14T04:22:23.701Z,17.36
2017-09-14T04:23:23.724Z,17.27
2017-09-14T04:24:23.735Z,17.27
2017-09-14T04:25:23.752Z,17.23
2017-09-14T04:26:23.785Z,17.36
2017-09-14T04:27:23.798Z,17.38
2017-09-14T04:28:24.139Z,17.23
2017-09-14T04:29:24.152Z,17.33
2017-09-14T04:30:23.905Z,17.23
2017-09-14T04:31:23.889Z,17.36
2017-09-14T04:32:23.904Z,17.38
2017-09-14T04:33:23.927Z,17.31
2017-09-14T04:34:23.948Z,17.39
2017-09-14T04:35:23.967Z,17.33
2017-09-14T04:36:24.309Z,17.23
2017-09-14T04:37:24.035Z,17.26
2017-09-14T04:38:24.036Z,17.33
2017-09-14T04:39:24.112Z,17.29
2017-09-14T04:40:24.079Z,17.3
2017-09-14T04:41:24.102Z,17.3
2017-09-14T04:42:24.126Z,17.33
2017-09-14T04:43:24.168Z,17.31
2017-09-14T04:44:24.202Z,17.3
2017-09-14T04:45:24.198Z,17.31
2017-09-14T04:46:24.213Z,17.36
2017-09-14T04:47:24.242Z,17.34
2017-09-14T04:48:24.600Z,17.3
2017-09-14T04:49:24.283Z,17.38
2017-09-14T04:50:24.303Z,17.38
2017-09-14T04:51:24.336Z,17.36
2017-09-14T04:52:24.354Z,17.36
2017-09-14T04:53:24.685Z,17.34
2017-09-14T04:54:24.395Z,17.29
2017-09-14T04:55:24.466Z,17.42
2017-09-14T04:56:24.440Z,17.42
2017-09-14T04:57:24.460Z,17.48
2017-09-14T04:58:24.486Z,17.51
2017-09-14T04:59:24.518Z,17.46
2017-09-14T05:00:24.583Z,17.45
2017-09-14T05:01:24.555Z,17.51
2017-09-14T05:02:24.897Z,17.45
2017-09-14T05:03:24.602Z,17.38
2017-09-14T05:04:24.618Z,17.39
2017-09-14T05:05:24.647Z,17.36
2017-09-14T05:06:24.659Z,17.48
2017-09-14T05:07:24.687Z,17.36
2017-09-14T05:08:24.705Z,17.38
2017-09-14T05:09:24.733Z,17.41
2017-09-14T05:10:24.749Z,17.36
2017-09-14T05:11:24.776Z,17.36
2017-09-14T05:12:24.796Z,17.54
2017-09-14T05:13:24.824Z,17.38
2017-09-14T05:14:24.853Z,17.41
2017-09-14T05:15:24.861Z,17.38
2017-09-14T05:16:24.889Z,17.41
2017-09-14T05:17:24.912Z,17.39
2017-09-14T05:18:25.304Z,17.45
2017-09-14T05:19:24.953Z,17.39
2017-09-14T05:20:24.985Z,17.48
2017-09-14T05:21:24.999Z,17.51
2017-09-14T05:22:25.023Z,17.49
2017-09-14T05:23:25.048Z,17.52
2017-09-14T05:24:25.088Z,17.52
2017-09-14T05:25:25.090Z,17.54
2017-09-14T05:26:25.117Z,17.46
2017-09-14T05:27:25.129Z,17.48
2017-09-14T05:28:25.153Z,17.51
2017-09-14T05:29:25.177Z,17.59
2017-09-14T05:30:25.222Z,17.57
2017-09-14T05:31:25.231Z,17.56
2017-09-14T05:32:25.245Z,17.6
2017-09-14T05:33:25.315Z,17.7
2017-09-14T05:34:25.290Z,17.67
2017-09-14T05:35:25.314Z,17.71
2017-09-14T05:36:25.342Z,17.68
2017-09-14T05:37:25.678Z,17.74
2017-09-14T05:38:25.701Z,17.71
2017-09-14T05:39:25.729Z,17.71
2017-09-14T05:40:25.744Z,17.72
2017-09-14T05:41:25.767Z,17.74
2017-09-14T05:42:25.469Z,17.7
2017-09-14T05:43:25.498Z,17.78
2017-09-14T05:44:25.579Z,17.86
2017-09-14T05:45:25.539Z,17.87
2017-09-14T05:46:25.570Z,17.82
2017-09-14T05:47:25.589Z,17.95
2017-09-14T05:48:25.608Z,18.03
2017-09-14T05:49:26.008Z,17.97
2017-09-14T05:50:25.657Z,18
2017-09-14T05:51:25.680Z,17.97
2017-09-14T05:52:25.701Z,18.08
2017-09-14T05:53:25.726Z,18
2017-09-14T05:54:25.774Z,18.01
2017-09-14T05:55:25.762Z,18.05
2017-09-14T05:56:25.794Z,18
2017-09-14T05:57:25.812Z,18.03
2017-09-14T05:58:25.838Z,18.08
2017-09-14T05:59:25.854Z,18.07
2017-09-14T06:00:25.878Z,18.1
2017-09-14T06:01:25.898Z,18.07
2017-09-14T06:02:25.925Z,18.05
2017-09-14T06:03:26.252Z,18.11
2017-09-14T06:04:25.971Z,18.04
2017-09-14T06:05:25.994Z,18.04
2017-09-14T06:06:26.121Z,18.15
2017-09-14T06:07:26.041Z,18.13
2017-09-14T06:08:26.067Z,18.26
2017-09-14T06:09:26.087Z,18.26
2017-09-14T06:10:26.104Z,18.19
2017-09-14T06:11:26.132Z,18.19
2017-09-14T06:12:26.149Z,18.19
2017-09-14T06:13:26.170Z,18.25
2017-09-14T06:14:26.198Z,18.23
2017-09-14T06:15:26.226Z,18.26
2017-09-14T06:16:26.245Z,18.28
2017-09-14T06:17:26.271Z,18.37
2017-09-14T06:18:26.310Z,18.38
2017-09-14T06:19:26.322Z,18.4
2017-09-14T06:20:26.337Z,18.35
2017-09-14T06:21:26.406Z,18.44
2017-09-14T06:22:26.386Z,18.4
2017-09-14T06:23:26.407Z,18.59
2017-09-14T06:24:26.447Z,18.53
2017-09-14T06:25:26.459Z,18.45
2017-09-14T06:26:26.475Z,18.44
2017-09-14T06:27:26.494Z,18.49
2017-09-14T06:28:26.521Z,18.58
2017-09-14T06:29:26.564Z,18.66
2017-09-14T06:30:26.564Z,18.68
2017-09-14T06:31:26.905Z,18.74
2017-09-14T06:32:26.612Z,18.73
2017-09-14T06:33:26.637Z,18.83
2017-09-14T06:34:26.657Z,18.95
2017-09-14T06:35:26.693Z,18.92
2017-09-14T06:36:26.706Z,18.99
2017-09-14T06:37:26.781Z,18.99
2017-09-14T06:38:26.763Z,19.16
2017-09-14T06:39:26.778Z,19.14
2017-09-14T06:40:26.802Z,19.14
2017-09-14T06:41:26.825Z,19.15
2017-09-14T06:42:26.852Z,19.22
2017-09-14T06:43:26.869Z,19.26
2017-09-14T06:44:26.893Z,19.22
2017-09-14T06:45:26.917Z,19.29
2017-09-14T06:46:26.940Z,19.37
2017-09-14T06:47:26.966Z,19.33
2017-09-14T06:48:27.305Z,19.47
2017-09-14T06:49:27.031Z,19.44
2017-09-14T06:50:27.037Z,19.54
2017-09-14T06:51:27.055Z,19.49
2017-09-14T06:52:27.398Z,19.48
2017-09-14T06:53:27.108Z,19.58
2017-09-14T06:54:27.129Z,19.7
2017-09-14T06:55:27.169Z,19.81
2017-09-14T06:56:27.178Z,19.89
2017-09-14T06:57:27.217Z,19.92
2017-09-14T06:58:27.228Z,20.04
2017-09-14T06:59:27.252Z,20.06
2017-09-14T07:00:27.275Z,20.07
2017-09-14T07:01:27.293Z,20.11
2017-09-14T07:02:27.319Z,20.21
2017-09-14T07:03:27.350Z,20.29
2017-09-14T07:04:27.370Z,20.34
2017-09-14T07:05:27.397Z,20.34
2017-09-14T07:06:27.418Z,20.37
2017-09-14T07:07:27.640Z,20.31
2017-09-14T07:08:27.474Z,20.29
2017-09-14T07:09:27.490Z,20.43
2017-09-14T07:10:27.516Z,20.55
2017-09-14T07:11:27.542Z,20.72
2017-09-14T07:12:27.566Z,20.78
2017-09-14T07:13:27.594Z,20.81
2017-09-14T07:14:27.625Z,20.87
2017-09-14T07:15:27.638Z,20.93
2017-09-14T07:16:27.661Z,21.03
2017-09-14T07:17:27.686Z,21.07
2017-09-14T07:18:27.714Z,21
2017-09-14T07:19:27.736Z,21.06
2017-09-14T07:20:27.770Z,20.97
2017-09-14T07:21:27.795Z,21.03
2017-09-14T07:22:27.812Z,21.24
2017-09-14T07:23:27.838Z,21.3
2017-09-14T07:24:27.866Z,21.42
2017-09-14T07:25:27.891Z,21.55
2017-09-14T07:26:27.922Z,21.69
2017-09-14T07:27:27.940Z,21.77
2017-09-14T07:28:27.972Z,21.8
2017-09-14T07:29:27.987Z,21.82
2017-09-14T07:30:28.076Z,21.8
2017-09-14T07:31:28.041Z,22.07
2017-09-14T07:32:28.069Z,22.04
2017-09-14T07:33:28.095Z,22.08
2017-09-14T07:34:28.700Z,22.15
2017-09-14T07:35:28.169Z,22.14
2017-09-14T07:36:28.165Z,22.15
2017-09-14T07:37:28.198Z,22.18
2017-09-14T07:38:28.220Z,22.08
2017-09-14T07:39:28.242Z,22.1
2017-09-14T07:40:29.094Z,21.92
2017-09-14T07:41:28.779Z,21.99
2017-09-14T07:42:28.755Z,22.02
2017-09-14T07:43:29.487Z,22.11
2017-09-14T07:44:28.869Z,22.28
2017-09-14T07:45:29.443Z,22.44
2017-09-14T07:46:29.376Z,22.55
2017-09-14T07:47:29.441Z,22.65
2017-09-14T07:48:28.875Z,22.66
2017-09-14T07:49:28.824Z,22.59
2017-09-14T07:50:28.547Z,22.43
2017-09-14T07:51:28.549Z,22.29
2017-09-14T07:52:28.586Z,22.29
2017-09-14T07:53:28.600Z,22.44
2017-09-14T07:54:29.308Z,22.59
2017-09-14T07:55:28.655Z,22.7
2017-09-14T07:56:28.678Z,22.84
2017-09-14T07:57:29.200Z,22.88
2017-09-14T07:58:29.605Z,22.7
2017-09-14T07:59:28.762Z,22.62
2017-09-14T08:00:28.790Z,22.8
2017-09-14T08:01:28.813Z,22.51
2017-09-14T08:02:28.839Z,22.33
2017-09-14T08:03:28.864Z,22.13
2017-09-14T08:04:28.885Z,22.04
2017-09-14T08:05:29.617Z,22.23
2017-09-14T08:06:28.945Z,22.14
2017-09-14T08:07:28.966Z,22.02
2017-09-14T08:08:28.995Z,21.99
2017-09-14T08:09:29.021Z,22.15
2017-09-14T08:10:29.056Z,22.26
2017-09-14T08:11:29.071Z,22.32
2017-09-14T08:12:29.093Z,22.2
2017-09-14T08:13:29.124Z,22.11
2017-09-14T08:14:29.152Z,21.7
2017-09-14T08:15:29.173Z,21.75
2017-09-14T08:16:29.198Z,21.69
2017-09-14T08:17:29.565Z,21.62
2017-09-14T08:18:29.257Z,21.54
2017-09-14T08:19:29.602Z,21.5
2017-09-14T08:20:29.297Z,21.3
2017-09-14T08:21:29.329Z,21.2
2017-09-14T08:22:29.355Z,21.05
2017-09-14T08:23:29.374Z,21.03
2017-09-14T08:24:30.104Z,21.06
2017-09-14T08:25:29.425Z,20.84
2017-09-14T08:26:29.862Z,20.66
2017-09-14T08:27:30.391Z,20.55
2017-09-14T08:28:29.924Z,20.34
2017-09-14T08:29:29.532Z,20.37
2017-09-14T08:30:29.549Z,20.39
2017-09-14T08:31:29.581Z,20.43
2017-09-14T08:32:29.606Z,20.43
2017-09-14T08:33:29.939Z,20.48
2017-09-14T08:34:29.659Z,20.37
2017-09-14T08:35:29.680Z,20.16
2017-09-14T08:36:29.701Z,19.96
2017-09-14T08:37:29.725Z,20.16
2017-09-14T08:38:29.761Z,20.22
2017-09-14T08:39:30.099Z,20.19
2017-09-14T08:40:29.809Z,20.24
2017-09-14T08:41:29.831Z,20.21
2017-09-14T08:42:29.849Z,20.02
2017-09-14T08:43:29.877Z,19.82
2017-09-14T08:44:29.902Z,19.88
2017-09-14T08:45:29.924Z,19.86
2017-09-14T08:46:29.969Z,19.79
2017-09-14T08:47:29.968Z,19.67
2017-09-14T08:48:30.003Z,19.69
2017-09-14T08:49:30.023Z,19.64
2017-09-14T08:50:30.052Z,19.82
2017-09-14T08:51:30.383Z,19.95
2017-09-14T08:52:30.103Z,19.86
2017-09-14T08:53:30.119Z,19.92
2017-09-14T08:54:30.456Z,19.82
2017-09-14T08:55:30.164Z,19.63
2017-09-14T08:56:30.192Z,19.55
2017-09-14T08:57:30.214Z,19.47
2017-09-14T08:58:30.285Z,19.16
2017-09-14T08:59:30.265Z,19.16
2017-09-14T09:00:30.591Z,19.08
2017-09-14T09:01:30.307Z,19.11
2017-09-14T09:02:30.337Z,19.09
2017-09-14T09:03:30.365Z,18.96
2017-09-14T09:04:30.376Z,18.78
2017-09-14T09:05:30.406Z,18.83
2017-09-14T09:06:30.428Z,18.74
2017-09-14T09:07:30.483Z,18.63
2017-09-14T09:08:30.470Z,18.33
2017-09-14T09:09:30.494Z,18.31
2017-09-14T09:10:30.523Z,18.33
2017-09-14T09:11:30.884Z,18.4
2017-09-14T09:12:30.581Z,18.49
2017-09-14T09:13:30.590Z,18.53
2017-09-14T09:14:30.613Z,18.65
2017-09-14T09:15:30.645Z,18.41
2017-09-14T09:16:30.664Z,18.13
2017-09-14T09:17:31.002Z,18.18
2017-09-14T09:18:30.729Z,18.05
2017-09-14T09:19:30.729Z,18.11
2017-09-14T09:20:30.755Z,18.03
2017-09-14T09:21:30.778Z,17.71
2017-09-14T09:22:30.799Z,17.68
2017-09-14T09:23:30.824Z,17.42
2017-09-14T09:24:30.865Z,17.33
2017-09-14T09:25:30.884Z,17.22
2017-09-14T09:26:30.925Z,16.93
2017-09-14T09:27:30.913Z,16.74
2017-09-14T09:28:30.943Z,16.84
2017-09-14T09:29:30.965Z,16.93
2017-09-14T09:30:30.980Z,17.06
2017-09-14T09:31:31.005Z,16.71
2017-09-14T09:32:31.031Z,16.58
2017-09-14T09:33:31.366Z,16.69
2017-09-14T09:34:31.074Z,16.65
2017-09-14T09:35:31.097Z,16.71
2017-09-14T09:36:31.118Z,16.64
2017-09-14T09:37:31.138Z,16.68
2017-09-14T09:38:31.168Z,16.66
2017-09-14T09:39:31.860Z,16.75
2017-09-14T09:40:31.519Z,16.81
2017-09-14T09:41:31.564Z,16.86
2017-09-14T09:42:31.564Z,16.78
2017-09-14T09:43:31.272Z,16.76
2017-09-14T09:44:31.612Z,16.71
2017-09-14T09:45:31.370Z,16.84
2017-09-14T09:46:31.656Z,16.78
2017-09-14T09:47:31.374Z,16.6
2017-09-14T09:48:31.697Z,16.56
2017-09-14T09:49:31.790Z,16.57
2017-09-14T09:50:31.433Z,16.56
2017-09-14T09:51:31.452Z,16.64
2017-09-14T09:52:31.475Z,16.68
2017-09-14T09:53:31.492Z,16.71
2017-09-14T09:54:31.513Z,16.69
2017-09-14T09:55:31.544Z,16.68
2017-09-14T09:56:31.565Z,16.68
2017-09-14T09:57:31.591Z,16.74
2017-09-14T09:58:31.620Z,16.91
2017-09-14T09:59:31.627Z,16.89
2017-09-14T10:00:31.701Z,16.87
2017-09-14T10:01:31.671Z,16.75
2017-09-14T10:02:31.699Z,16.89
2017-09-14T10:03:31.716Z,16.99
2017-09-14T10:04:31.742Z,16.75
2017-09-14T10:05:31.766Z,16.69
2017-09-14T10:06:31.782Z,16.65
2017-09-14T10:07:31.817Z,16.54
2017-09-14T10:08:32.175Z,16.56
2017-09-14T10:09:31.849Z,16.51
2017-09-14T10:10:31.875Z,16.49
2017-09-14T10:11:31.913Z,16.47
2017-09-14T10:12:31.923Z,16.54
2017-09-14T10:13:31.939Z,16.43
2017-09-14T10:14:31.958Z,16.21
2017-09-14T10:15:31.992Z,16.13
2017-09-14T10:16:32.002Z,16
2017-09-14T10:17:32.080Z,15.82
2017-09-14T10:18:32.062Z,15.8
2017-09-14T10:19:32.070Z,15.77
2017-09-14T10:20:32.092Z,15.86
2017-09-14T10:21:32.112Z,15.8
2017-09-14T10:22:32.145Z,15.84
2017-09-14T10:23:32.157Z,15.7
2017-09-14T10:24:32.179Z,15.7
2017-09-14T10:25:32.198Z,15.57
2017-09-14T10:26:32.218Z,15.47
2017-09-14T10:27:32.256Z,15.4
2017-09-14T10:28:32.472Z,15.31
2017-09-14T10:29:32.604Z,15.33
2017-09-14T10:30:32.310Z,15.19
2017-09-14T10:31:32.329Z,15.06
2017-09-14T10:32:32.353Z,15.03
2017-09-14T10:33:32.420Z,14.91
2017-09-14T10:34:32.394Z,14.82
2017-09-14T10:35:32.422Z,14.84
2017-09-14T10:36:32.484Z,14.69
2017-09-14T10:37:32.456Z,14.66
2017-09-14T10:38:32.481Z,14.58
2017-09-14T10:39:32.501Z,14.6
2017-09-14T10:40:32.521Z,14.54
2017-09-14T10:41:32.538Z,14.69
2017-09-14T10:42:32.564Z,14.6
2017-09-14T10:43:32.583Z,14.66
2017-09-14T10:44:32.605Z,14.72
2017-09-14T10:45:32.621Z,14.6
2017-09-14T10:46:32.645Z,14.53
2017-09-14T10:47:32.671Z,14.44
2017-09-14T10:48:32.739Z,14.35
2017-09-14T10:49:32.707Z,14.3
2017-09-14T10:50:32.743Z,13.96
2017-09-14T10:51:32.751Z,13.86
2017-09-14T10:52:32.770Z,13.65
2017-09-14T10:53:32.789Z,13.71
2017-09-14T10:54:32.812Z,13.63
2017-09-14T10:55:32.826Z,13.5
2017-09-14T10:56:33.166Z,13.35
2017-09-14T10:57:32.874Z,13.31
2017-09-14T10:58:32.888Z,13.5
2017-09-14T10:59:33.223Z,13.53
2017-09-14T11:00:32.934Z,13.53
2017-09-14T11:01:32.948Z,13.35
2017-09-14T11:02:32.974Z,13.03
2017-09-14T11:03:33.050Z,12.85
2017-09-14T11:04:33.326Z,12.76
2017-09-14T11:05:33.044Z,12.61
2017-09-14T11:06:33.092Z,12.49
2017-09-14T11:07:33.075Z,12.35
2017-09-14T11:08:33.096Z,12.42
2017-09-14T11:09:33.117Z,12.46
2017-09-14T11:10:33.179Z,12.47
2017-09-14T11:11:33.168Z,12.39
2017-09-14T11:12:33.169Z,12.37
2017-09-14T11:13:33.188Z,12.39
2017-09-14T11:14:33.221Z,12.24
2017-09-14T11:15:33.236Z,12.22
2017-09-14T11:16:33.253Z,12.09
2017-09-14T11:17:33.266Z,12.22
2017-09-14T11:18:33.343Z,12.04
2017-09-14T11:19:33.304Z,12.07
2017-09-14T11:20:33.324Z,12.09
2017-09-14T11:21:33.346Z,12.02
2017-09-14T11:22:33.361Z,12.1
2017-09-14T11:23:33.379Z,12.04
2017-09-14T11:24:33.716Z,12.09
2017-09-14T11:25:33.418Z,12.03
2017-09-14T11:26:34.482Z,12.18
2017-09-14T11:27:35.154Z,12.18
2017-09-14T11:28:33.476Z,12.15
2017-09-14T11:29:33.501Z,12.1
2017-09-14T11:30:33.521Z,12.07
2017-09-14T11:31:33.537Z,12.1
2017-09-14T11:32:33.562Z,12.09
2017-09-14T11:33:33.627Z,12.09
2017-09-14T11:34:33.597Z,12.12
2017-09-14T11:35:33.610Z,11.95
2017-09-14T11:36:33.635Z,12.06
2017-09-14T11:37:33.651Z,12.07
2017-09-14T11:38:33.677Z,12.09
2017-09-14T11:39:33.695Z,12.03
2017-09-14T11:40:33.707Z,11.99
2017-09-14T11:41:33.740Z,11.97
2017-09-14T11:42:34.068Z,11.97
2017-09-14T11:43:33.769Z,11.99
2017-09-14T11:44:33.786Z,11.99
2017-09-14T11:45:33.803Z,12.02
2017-09-14T11:46:33.827Z,11.84
2017-09-14T11:47:33.847Z,11.8
2017-09-14T11:48:33.866Z,11.75
2017-09-14T11:49:33.957Z,11.72
2017-09-14T11:50:33.898Z,11.72
2017-09-14T11:51:33.918Z,11.77
2017-09-14T11:52:33.938Z,11.62
2017-09-14T11:53:33.996Z,11.54
2017-09-14T11:54:33.990Z,11.47
2017-09-14T11:55:33.995Z,11.33
2017-09-14T11:56:34.055Z,11.4
2017-09-14T11:57:34.349Z,11.48
2017-09-14T11:58:34.052Z,11.37
2017-09-14T11:59:34.089Z,11.35
2017-09-14T12:00:34.087Z,11.48
2017-09-14T12:01:34.112Z,11.45
2017-09-14T12:02:34.127Z,11.41
2017-09-14T12:03:34.146Z,11.37
2017-09-14T12:04:34.167Z,11.36
2017-09-14T12:05:34.184Z,11.43
2017-09-14T12:06:34.195Z,11.52
2017-09-14T12:07:34.269Z,11.37
2017-09-14T12:08:34.255Z,11.26
2017-09-14T12:09:34.258Z,11.3
2017-09-14T12:10:34.584Z,11.32
2017-09-14T12:11:34.306Z,11.22
2017-09-14T12:12:34.316Z,11.37
2017-09-14T12:13:34.662Z,11.35
2017-09-14T12:14:34.685Z,11.33
2017-09-14T12:15:34.365Z,11.29
2017-09-14T12:16:34.392Z,11.29
2017-09-14T12:17:34.758Z,11.04
2017-09-14T12:18:34.740Z,11.15
2017-09-14T12:19:34.442Z,11.14
2017-09-14T12:20:34.466Z,11.14
2017-09-14T12:21:34.793Z,11.07
2017-09-14T12:22:34.500Z,11.22
2017-09-14T12:23:34.839Z,11.18
2017-09-14T12:24:34.534Z,11.12
2017-09-14T12:25:34.602Z,11.17
2017-09-14T12:26:34.595Z,11.05
2017-09-14T12:27:34.918Z,11.05
2017-09-14T12:28:34.606Z,11.08
2017-09-14T12:29:34.626Z,10.96
2017-09-14T12:30:34.685Z,11.11
2017-09-14T12:31:34.981Z,10.96
2017-09-14T12:32:34.681Z,10.9
2017-09-14T12:33:34.718Z,10.76
2017-09-14T12:34:34.717Z,10.78
2017-09-14T12:35:35.199Z,10.81
2017-09-14T12:36:34.754Z,10.82
2017-09-14T12:37:34.772Z,10.93
2017-09-14T12:38:34.831Z,10.87
2017-09-14T12:39:34.824Z,10.86
2017-09-14T12:40:34.837Z,10.68
2017-09-14T12:41:35.215Z,10.61
2017-09-14T12:42:34.859Z,10.72
2017-09-14T12:43:34.883Z,10.68
2017-09-14T12:44:35.099Z,10.75
2017-09-14T12:45:35.233Z,10.75
2017-09-14T12:46:34.935Z,10.76
2017-09-14T12:47:34.958Z,10.87
2017-09-14T12:48:34.971Z,10.81
2017-09-14T12:49:34.998Z,10.74
2017-09-14T12:50:35.026Z,10.63
2017-09-14T12:51:35.030Z,10.72
2017-09-14T12:52:35.046Z,10.75
2017-09-14T12:53:35.063Z,10.75
2017-09-14T12:54:35.091Z,10.81
2017-09-14T12:55:35.132Z,10.72